AirNav   Air Wisconsin Up To $57,000 Bonus
 
 375 users online  

9A0 Lumpkin County-Wimpys Airport
Dahlonega, Georgia, USA

GOING TO DAHLONEGA?


FAA INFORMATION EFFECTIVE 10 OCTOBER 2019

Location

FAA Identifier: 9A0
Lat/Long: 34-34-59.3000N 084-01-11.9000W
34-34.988333N 084-01.198333W
34.5831389,-84.0199722
(estimated)
Elevation: 1311 ft. / 400 m (estimated)
Variation: 03W (1985)
From city: 3 miles NW of DAHLONEGA, GA
Time zone: UTC -4 (UTC -5 during Standard Time)
Zip code: 30533

Airport Operations

Airport use: Open to the public
Activation date: 08/1956
Control tower: no
ARTCC: ATLANTA CENTER
FSS: MACON FLIGHT SERVICE STATION
NOTAMs facility: MCN (NOTAM-D service available)
Attendance: UNATNDD
Wind indicator: yes
Segmented circle: no
Lights: RDO CTL

Airport Communications

CTAF: 122.9
WX AWOS-3 at DZJ (16 nm N): 119.325 (706-745-9271)

Nearby radio navigation aids

VOR radial/distance  VOR name  Freq  Var
HRSr193/22.2HARRIS VORTAC109.8000E
ODFr259/36.3FOOTHILLS VORTAC113.4000E

 
NDB name  Hdg/Dist  Freq  Var  ID
FLOWERY BRANCH349/23.536503WFKV ..-. -.- ...-
CHERO054/30.541505WDJD -.. .--- -..

Airport Services

Fuel available: 100LL
24 HOUR SELF SERVE WITH CREDIT CARD.
Parking: tiedowns
Airframe service: NONE
Powerplant service: NONE
Bottled oxygen: NONE
Bulk oxygen: NONE

Runway Information

Runway 15/33

Dimensions: 3090 x 50 ft. / 942 x 15 m
Surface: asphalt, in good condition
Weight bearing capacity: 
Single wheel: 12.0
Runway edge lights: non-standard
NSTD LIRL THE LENGTH OF THE RY. NO THLD LIGHTS. LIRL OTS INDEFLY.
RUNWAY 15  RUNWAY 33
Latitude: 34-35.210333N34-34.767167N
Longitude: 084-01.350167W084-01.046000W
Traffic pattern: leftleft
Displaced threshold: 754 ft.695 ft.
Markings: basic, in good conditionbasic, in good condition
Obstructions: 137 ft. trees, 1236 ft. from runway, 225 ft. left of centerline, 8:1 slope to clear
15:1 APCH SLP TO DSPLCD THLD, TREES 450 FT OUT & 150 FT RIGHT.
22 ft. trees, 310 ft. from runway, 50 ft. right of centerline, 5:1 slope to clear
APCH SLOPE 25:1 TO DSPLCD THLD, TREELINE 2,325 FROM DSPLCD THLD.

Airport Ownership and Management from official FAA records

Ownership: Publicly-owned
Owner: LUMPKIN COUNTY AIRPORT AUTHORITY
99 COURTHOUSE HILL, SUITE H
DAHLONEGA, GA 30533
Phone (706) 265-0284
Manager: JIMMY BERRONG
99 COURTHOUSE HILL, SUITE H
DAHLONEGA, GA 30533
Phone (706) 265-0284
AIRPORT ADDRESS: 1682 CAMP WAHSEGA RD

Airport Operational Statistics

Aircraft based on the field: 26
Single engine airplanes: 25
Multi engine airplanes: 1
    
Aircraft operations: avg 107/week *
54% local general aviation
36% transient general aviation
11% military
* for 12-month period ending 31 December 2018

Additional Remarks

ARPT CLSD TO ACFT AT NIGHT, DAYTIME USE ONLY.
DEER & WILDLIFE ON OR INVOF ARPT.
FOR CD CTC ATLANTA ARTCC AT 770-210-7692.

Instrument Procedures

There are no published instrument procedures at 9A0.

Some nearby airports with instrument procedures:

KDZJ - Blairsville Airport (16 nm N)
KGVL - Lee Gilmer Memorial Airport (21 nm SE)
KJZP - Pickens County Airport (23 nm W)
KAJR - Habersham County Airport (23 nm E)
49A - Gilmer County Airport (25 nm W)
 
Loc | Ops | Rwys | IFR | FBO | Links
Com | Nav | Svcs | Stats | Notes
Area around 9A0 (Lumpkin County-Wimpys Airport)
 
Road maps at: MapQuest Bing Google
 
Aerial photo
WARNING: Photo may not be current or correct
Aerial photo of 9A0 (Lumpkin County-Wimpys Airport)
Photo by Jerry Morris
Photo taken 17-Sep-2015
looking south.

Do you have a better or more recent aerial photo of Lumpkin County-Wimpys Airport that you would like to share? If so, please send us your photo.

 
Sectional chart

 
Airport distance calculator
Flying to Lumpkin County-Wimpys Airport? Find the distance to fly.

From to 9A0

Sunrise and sunset
Times for 16-Oct-2019
 Local
(UTC-4)
 Zulu
(UTC)
Morning civil twilight07:1811:18
Sunrise07:4311:43
Sunset19:0023:00
Evening civil twilight19:2523:25

Current date and time
Zulu (UTC)  16-Oct-2019 05:53:36
Local (UTC-4)  16-Oct-2019 01:53:36
 
METAR
KDZJ 
16nm N 
160535Z AUTO 00000KT 10SM BKN023 BKN049 OVC090 16/12 A2995 RMK AO2 T01630120
KGVL 
21nm SE 
160518Z AUTO 11008KT 3SM -RA BR BKN004 OVC012 15/15 A2995 RMK AO2 RAB0459 P0008 T01500150
KJZP 
23nm W 
160535Z AUTO 20006KT 5SM RA OVC014 15/14 A2995 RMK AO2 T01500140
KAJR 
23nm E 
160535Z AUTO 11004KT 3SM +RA BKN005 OVC014 15/15 A2994 RMK AO2 T01450145
K49A 
25nm W 
160535Z AUTO 11006KT 10SM -RA BKN021 OVC029 16/14 A2994 RMK AO2 T01560137
KCNI 
26nm SW 
160530Z AUTO 06006KT 5SM BR OVC003 16/16 A2994 RMK AO2
TAF
KPDK 
44nm S 
160133Z 1602/1624 VRB03KT 5SM -SHRA BR OVC008 FM160600 13004KT 4SM -SHRA BR OVC005 FM161100 22004KT 3SM BR VCSH OVC003 FM161500 28010KT P6SM BKN007 OVC012 FM161700 30012G20KT P6SM SCT015 BKN040 FM161900 31013G21KT P6SM FEW030 SCT200
KRYY 
45nm SW 
160344Z 1604/1624 10005KT 6SM BR VCSH OVC008 FM160500 13004KT 4SM -SHRA BR OVC007 FM161100 22004KT 2SM BR VCSH OVC004 FM161500 30010KT P6SM BKN007 OVC012 FM161600 31012G20KT P6SM SCT015 BKN030 FM161800 32012G20KT P6SM SCT060 SCT200
KMGE 
47nm SW 
152100Z 1521/1703 10006KT 9999 -RA SCT020 BKN030 OVC050 QNH3005INS BECMG 1600/1601 10007KT 8000 BR OVC009 QNH2985INS BECMG 1608/1609 15007KT 8000 BR BKN006 OVC012 QNH2985INS BECMG 1613/1614 29015G25KT 8000 SHRA BR BKN010 OVC020 QNH2997INS BECMG 1619/1620 31015G25KT 9999 NSW SCT025 BKN060 QNH2985INS WND 30012G18KT AFT 1701 TX21/1621Z TN15/1611Z
NOTAMs
Click for the latest NOTAMs
NOTAMs are issued by the DoD/FAA and will open in a separate window not controlled by AirNav.

 

 
 

FBO, Fuel Providers, and Aircraft Ground Support

  
 Business Name 
 
 Contact 
 
 Services / Description 
 
Fuel Prices
 
Comments
  
Lumpkin County-Wimpy's Airport 706-864-6894
no information available

If you are affiliated with Lumpkin County-Wimpy's Airport and would like to show here your services, contact info, web link, logo, and more, click here
100LL
SS $4.65 
 Updated 08-Oct-2019
 
   write
SS=Self service
Update Fuel Prices
 

Would you like to see your business listed on this page?

 If your business provides an interesting product or service to pilots, flight crews, aircraft, or users of the Lumpkin County-Wimpys Airport, you should consider listing it here.  To start the listing process, click on the button below
 
Add a business
 

Other Pages about Lumpkin County-Wimpys Airport

Update a link
 
Copyright © AirNav, LLC. All rights reserved. Privacy Policy  Contact